<?xml version="1.0" encoding="UTF-8" ?>
<gpx xmlns="http://www.topografix.com/GPX/1/1" version="1.1" creator="RouteGadget GPS Tracking" xmlns:xsi="http://www.w3.org/2001/XMLSchema-instance" xmlns:tp1="http://www.garmin.com/xmlschemas/TrackPointExtension/v1" xsi:schemaLocation="http://www.topografix.com/GPX/1/1 http://www.topografix.com/GPX/1/1/gpx.xsd http://www.garmin.com/xmlschemas/TrackPointExtension/v1 http://www.garmin.com/xmlschemas/TrackPointExtensionv1.xsd">
<trk>
<trkseg><trkpt lat="45.678817" lon="13.122711">
<time>2020-12-12T11:07:13Z</time>
</trkpt>
<trkpt lat="45.67866" lon="13.122835">
<time>2020-12-12T11:07:21Z</time>
</trkpt>
<trkpt lat="45.678472" lon="13.122989">
<time>2020-12-12T11:07:25Z</time>
</trkpt>
<trkpt lat="45.678331" lon="13.123183">
<time>2020-12-12T11:07:29Z</time>
</trkpt>
<trkpt lat="45.678249" lon="13.123424">
<time>2020-12-12T11:07:33Z</time>
</trkpt>
<trkpt lat="45.678172" lon="13.123672">
<time>2020-12-12T11:07:37Z</time>
</trkpt>
<trkpt lat="45.678146" lon="13.123807">
<time>2020-12-12T11:07:39Z</time>
</trkpt>
<trkpt lat="45.678115" lon="13.124083">
<time>2020-12-12T11:07:43Z</time>
</trkpt>
<trkpt lat="45.67812" lon="13.124206">
<time>2020-12-12T11:07:45Z</time>
</trkpt>
<trkpt lat="45.678187" lon="13.12448">
<time>2020-12-12T11:07:51Z</time>
</trkpt>
<trkpt lat="45.678189" lon="13.124648">
<time>2020-12-12T11:07:55Z</time>
</trkpt>
<trkpt lat="45.678024" lon="13.124817">
<time>2020-12-12T11:08:00Z</time>
</trkpt>
<trkpt lat="45.677972" lon="13.1249">
<time>2020-12-12T11:08:01Z</time>
</trkpt>
<trkpt lat="45.677826" lon="13.125098">
<time>2020-12-12T11:08:09Z</time>
</trkpt>
<trkpt lat="45.677737" lon="13.125134">
<time>2020-12-12T11:08:12Z</time>
</trkpt>
<trkpt lat="45.677596" lon="13.124946">
<time>2020-12-12T11:08:18Z</time>
</trkpt>
<trkpt lat="45.677553" lon="13.12495">
<time>2020-12-12T11:08:20Z</time>
</trkpt>
<trkpt lat="45.677484" lon="13.125069">
<time>2020-12-12T11:08:28Z</time>
</trkpt>
<trkpt lat="45.677426" lon="13.125096">
<time>2020-12-12T11:08:32Z</time>
</trkpt>
<trkpt lat="45.677356" lon="13.125174">
<time>2020-12-12T11:08:35Z</time>
</trkpt>
<trkpt lat="45.677368" lon="13.125257">
<time>2020-12-12T11:08:38Z</time>
</trkpt>
<trkpt lat="45.677396" lon="13.125343">
<time>2020-12-12T11:08:41Z</time>
</trkpt>
<trkpt lat="45.677485" lon="13.125569">
<time>2020-12-12T11:08:47Z</time>
</trkpt>
<trkpt lat="45.677635" lon="13.125751">
<time>2020-12-12T11:08:52Z</time>
</trkpt>
<trkpt lat="45.677757" lon="13.125945">
<time>2020-12-12T11:08:58Z</time>
</trkpt>
<trkpt lat="45.677798" lon="13.126102">
<time>2020-12-12T11:09:02Z</time>
</trkpt>
<trkpt lat="45.6779" lon="13.126103">
<time>2020-12-12T11:09:08Z</time>
</trkpt>
<trkpt lat="45.678049" lon="13.126271">
<time>2020-12-12T11:09:14Z</time>
</trkpt>
<trkpt lat="45.678194" lon="13.126434">
<time>2020-12-12T11:09:19Z</time>
</trkpt>
<trkpt lat="45.678327" lon="13.126658">
<time>2020-12-12T11:09:25Z</time>
</trkpt>
<trkpt lat="45.678406" lon="13.126908">
<time>2020-12-12T11:09:31Z</time>
</trkpt>
<trkpt lat="45.67851" lon="13.127119">
<time>2020-12-12T11:09:36Z</time>
</trkpt>
<trkpt lat="45.678689" lon="13.127265">
<time>2020-12-12T11:09:42Z</time>
</trkpt>
<trkpt lat="45.678878" lon="13.127389">
<time>2020-12-12T11:09:48Z</time>
</trkpt>
<trkpt lat="45.679066" lon="13.127543">
<time>2020-12-12T11:09:54Z</time>
</trkpt>
<trkpt lat="45.679235" lon="13.127636">
<time>2020-12-12T11:09:59Z</time>
</trkpt>
<trkpt lat="45.679276" lon="13.127642">
<time>2020-12-12T11:10:00Z</time>
</trkpt>
<trkpt lat="45.679429" lon="13.127499">
<time>2020-12-12T11:10:10Z</time>
</trkpt>
<trkpt lat="45.679433" lon="13.127469">
<time>2020-12-12T11:10:11Z</time>
</trkpt>
<trkpt lat="45.679408" lon="13.127418">
<time>2020-12-12T11:10:13Z</time>
</trkpt>
<trkpt lat="45.679369" lon="13.127361">
<time>2020-12-12T11:10:19Z</time>
</trkpt>
<trkpt lat="45.679365" lon="13.127362">
<time>2020-12-12T11:10:22Z</time>
</trkpt>
<trkpt lat="45.679374" lon="13.127436">
<time>2020-12-12T11:10:27Z</time>
</trkpt>
<trkpt lat="45.679399" lon="13.127139">
<time>2020-12-12T11:10:31Z</time>
</trkpt>
<trkpt lat="45.679442" lon="13.126861">
<time>2020-12-12T11:10:35Z</time>
</trkpt>
<trkpt lat="45.679448" lon="13.126596">
<time>2020-12-12T11:10:39Z</time>
</trkpt>
<trkpt lat="45.679471" lon="13.126324">
<time>2020-12-12T11:10:44Z</time>
</trkpt>
<trkpt lat="45.679478" lon="13.126034">
<time>2020-12-12T11:10:51Z</time>
</trkpt>
<trkpt lat="45.679442" lon="13.125828">
<time>2020-12-12T11:10:57Z</time>
</trkpt>
<trkpt lat="45.679406" lon="13.125808">
<time>2020-12-12T11:11:00Z</time>
</trkpt>
<trkpt lat="45.679393" lon="13.125813">
<time>2020-12-12T11:11:03Z</time>
</trkpt>
<trkpt lat="45.679377" lon="13.125764">
<time>2020-12-12T11:11:05Z</time>
</trkpt>
<trkpt lat="45.679228" lon="13.125631">
<time>2020-12-12T11:11:11Z</time>
</trkpt>
<trkpt lat="45.67905" lon="13.125535">
<time>2020-12-12T11:11:16Z</time>
</trkpt>
<trkpt lat="45.678872" lon="13.12539">
<time>2020-12-12T11:11:22Z</time>
</trkpt>
<trkpt lat="45.678695" lon="13.125261">
<time>2020-12-12T11:11:30Z</time>
</trkpt>
<trkpt lat="45.678508" lon="13.125353">
<time>2020-12-12T11:11:39Z</time>
</trkpt>
<trkpt lat="45.678356" lon="13.125219">
<time>2020-12-12T11:11:47Z</time>
</trkpt>
<trkpt lat="45.67821" lon="13.124984">
<time>2020-12-12T11:11:52Z</time>
</trkpt>
<trkpt lat="45.678206" lon="13.124751">
<time>2020-12-12T11:11:58Z</time>
</trkpt>
<trkpt lat="45.678374" lon="13.124588">
<time>2020-12-12T11:12:05Z</time>
</trkpt>
<trkpt lat="45.678428" lon="13.124578">
<time>2020-12-12T11:12:12Z</time>
</trkpt>
<trkpt lat="45.678412" lon="13.124578">
<time>2020-12-12T11:12:13Z</time>
</trkpt>
<trkpt lat="45.678242" lon="13.124421">
<time>2020-12-12T11:12:20Z</time>
</trkpt>
<trkpt lat="45.678141" lon="13.124178">
<time>2020-12-12T11:12:26Z</time>
</trkpt>
<trkpt lat="45.678048" lon="13.123958">
<time>2020-12-12T11:12:31Z</time>
</trkpt>
<trkpt lat="45.677906" lon="13.123786">
<time>2020-12-12T11:12:36Z</time>
</trkpt>
<trkpt lat="45.677736" lon="13.123636">
<time>2020-12-12T11:12:41Z</time>
</trkpt>
<trkpt lat="45.677539" lon="13.123644">
<time>2020-12-12T11:12:47Z</time>
</trkpt>
<trkpt lat="45.677365" lon="13.123764">
<time>2020-12-12T11:12:53Z</time>
</trkpt>
<trkpt lat="45.677192" lon="13.123882">
<time>2020-12-12T11:12:58Z</time>
</trkpt>
<trkpt lat="45.67703" lon="13.123843">
<time>2020-12-12T11:13:06Z</time>
</trkpt>
<trkpt lat="45.676926" lon="13.123736">
<time>2020-12-12T11:13:14Z</time>
</trkpt>
<trkpt lat="45.676866" lon="13.123714">
<time>2020-12-12T11:13:20Z</time>
</trkpt>
<trkpt lat="45.676842" lon="13.123458">
<time>2020-12-12T11:13:30Z</time>
</trkpt>
<trkpt lat="45.676641" lon="13.123434">
<time>2020-12-12T11:13:37Z</time>
</trkpt>
<trkpt lat="45.676459" lon="13.123471">
<time>2020-12-12T11:13:42Z</time>
</trkpt>
<trkpt lat="45.676282" lon="13.123566">
<time>2020-12-12T11:13:48Z</time>
</trkpt>
<trkpt lat="45.676088" lon="13.123586">
<time>2020-12-12T11:13:55Z</time>
</trkpt>
<trkpt lat="45.675917" lon="13.123401">
<time>2020-12-12T11:14:02Z</time>
</trkpt>
<trkpt lat="45.675781" lon="13.123217">
<time>2020-12-12T11:14:07Z</time>
</trkpt>
<trkpt lat="45.675658" lon="13.123021">
<time>2020-12-12T11:14:12Z</time>
</trkpt>
<trkpt lat="45.675508" lon="13.122826">
<time>2020-12-12T11:14:17Z</time>
</trkpt>
<trkpt lat="45.675401" lon="13.12261">
<time>2020-12-12T11:14:22Z</time>
</trkpt>
<trkpt lat="45.675446" lon="13.122356">
<time>2020-12-12T11:14:28Z</time>
</trkpt>
<trkpt lat="45.675485" lon="13.122193">
<time>2020-12-12T11:14:33Z</time>
</trkpt>
<trkpt lat="45.675442" lon="13.121904">
<time>2020-12-12T11:14:42Z</time>
</trkpt>
<trkpt lat="45.675311" lon="13.1217">
<time>2020-12-12T11:14:48Z</time>
</trkpt>
<trkpt lat="45.675232" lon="13.121399">
<time>2020-12-12T11:14:54Z</time>
</trkpt>
<trkpt lat="45.675154" lon="13.121148">
<time>2020-12-12T11:14:58Z</time>
</trkpt>
<trkpt lat="45.675047" lon="13.120885">
<time>2020-12-12T11:15:03Z</time>
</trkpt>
<trkpt lat="45.674939" lon="13.120665">
<time>2020-12-12T11:15:08Z</time>
</trkpt>
<trkpt lat="45.674887" lon="13.12045">
<time>2020-12-12T11:15:13Z</time>
</trkpt>
<trkpt lat="45.675026" lon="13.12022">
<time>2020-12-12T11:15:20Z</time>
</trkpt>
<trkpt lat="45.675111" lon="13.119948">
<time>2020-12-12T11:15:26Z</time>
</trkpt>
<trkpt lat="45.675129" lon="13.119653">
<time>2020-12-12T11:15:32Z</time>
</trkpt>
<trkpt lat="45.675122" lon="13.11959">
<time>2020-12-12T11:15:33Z</time>
</trkpt>
<trkpt lat="45.675114" lon="13.119568">
<time>2020-12-12T11:15:35Z</time>
</trkpt>
<trkpt lat="45.674952" lon="13.119451">
<time>2020-12-12T11:15:45Z</time>
</trkpt>
<trkpt lat="45.674994" lon="13.119463">
<time>2020-12-12T11:15:48Z</time>
</trkpt>
<trkpt lat="45.675172" lon="13.119248">
<time>2020-12-12T11:15:59Z</time>
</trkpt>
<trkpt lat="45.675323" lon="13.119029">
<time>2020-12-12T11:16:02Z</time>
</trkpt>
<trkpt lat="45.675377" lon="13.11875">
<time>2020-12-12T11:16:07Z</time>
</trkpt>
<trkpt lat="45.67531" lon="13.118468">
<time>2020-12-12T11:16:14Z</time>
</trkpt>
<trkpt lat="45.675198" lon="13.118342">
<time>2020-12-12T11:16:20Z</time>
</trkpt>
<trkpt lat="45.675182" lon="13.1183">
<time>2020-12-12T11:16:24Z</time>
</trkpt>
<trkpt lat="45.675292" lon="13.118523">
<time>2020-12-12T11:16:32Z</time>
</trkpt>
<trkpt lat="45.675443" lon="13.118731">
<time>2020-12-12T11:16:37Z</time>
</trkpt>
<trkpt lat="45.675573" lon="13.118955">
<time>2020-12-12T11:16:42Z</time>
</trkpt>
<trkpt lat="45.675724" lon="13.119112">
<time>2020-12-12T11:16:47Z</time>
</trkpt>
<trkpt lat="45.675884" lon="13.119246">
<time>2020-12-12T11:16:52Z</time>
</trkpt>
<trkpt lat="45.676067" lon="13.119329">
<time>2020-12-12T11:17:00Z</time>
</trkpt>
<trkpt lat="45.676229" lon="13.119207">
<time>2020-12-12T11:17:05Z</time>
</trkpt>
<trkpt lat="45.676343" lon="13.119131">
<time>2020-12-12T11:17:08Z</time>
</trkpt>
<trkpt lat="45.676526" lon="13.118995">
<time>2020-12-12T11:17:13Z</time>
</trkpt>
<trkpt lat="45.676709" lon="13.118846">
<time>2020-12-12T11:17:18Z</time>
</trkpt>
<trkpt lat="45.676881" lon="13.118725">
<time>2020-12-12T11:17:23Z</time>
</trkpt>
<trkpt lat="45.677056" lon="13.118634">
<time>2020-12-12T11:17:29Z</time>
</trkpt>
<trkpt lat="45.677108" lon="13.118669">
<time>2020-12-12T11:17:33Z</time>
</trkpt>
<trkpt lat="45.677246" lon="13.118894">
<time>2020-12-12T11:17:39Z</time>
</trkpt>
<trkpt lat="45.67731" lon="13.119148">
<time>2020-12-12T11:17:44Z</time>
</trkpt>
<trkpt lat="45.677338" lon="13.119405">
<time>2020-12-12T11:17:50Z</time>
</trkpt>
<trkpt lat="45.677448" lon="13.119673">
<time>2020-12-12T11:17:56Z</time>
</trkpt>
<trkpt lat="45.677532" lon="13.119912">
<time>2020-12-12T11:18:01Z</time>
</trkpt>
<trkpt lat="45.677637" lon="13.120134">
<time>2020-12-12T11:18:06Z</time>
</trkpt>
<trkpt lat="45.677733" lon="13.120366">
<time>2020-12-12T11:18:11Z</time>
</trkpt>
<trkpt lat="45.677858" lon="13.12058">
<time>2020-12-12T11:18:17Z</time>
</trkpt>
<trkpt lat="45.677942" lon="13.120802">
<time>2020-12-12T11:18:22Z</time>
</trkpt>
<trkpt lat="45.678012" lon="13.121104">
<time>2020-12-12T11:18:28Z</time>
</trkpt>
<trkpt lat="45.677969" lon="13.12137">
<time>2020-12-12T11:18:33Z</time>
</trkpt>
<trkpt lat="45.67794" lon="13.121625">
<time>2020-12-12T11:18:38Z</time>
</trkpt>
<trkpt lat="45.67791" lon="13.121781">
<time>2020-12-12T11:18:44Z</time>
</trkpt>
<trkpt lat="45.677792" lon="13.121547">
<time>2020-12-12T11:18:52Z</time>
</trkpt>
<trkpt lat="45.677744" lon="13.121559">
<time>2020-12-12T11:18:54Z</time>
</trkpt>
<trkpt lat="45.677666" lon="13.121807">
<time>2020-12-12T11:19:00Z</time>
</trkpt>
<trkpt lat="45.677749" lon="13.122047">
<time>2020-12-12T11:19:05Z</time>
</trkpt>
<trkpt lat="45.677897" lon="13.12221">
<time>2020-12-12T11:19:10Z</time>
</trkpt>
<trkpt lat="45.67805" lon="13.122346">
<time>2020-12-12T11:19:15Z</time>
</trkpt>
<trkpt lat="45.678191" lon="13.122527">
<time>2020-12-12T11:19:20Z</time>
</trkpt>
<trkpt lat="45.678331" lon="13.122716">
<time>2020-12-12T11:19:25Z</time>
</trkpt>
<trkpt lat="45.678338" lon="13.12272">
<time>2020-12-12T11:19:27Z</time>
</trkpt>
<trkpt lat="45.67842" lon="13.122452">
<time>2020-12-12T11:19:34Z</time>
</trkpt>
<trkpt lat="45.678482" lon="13.122358">
<time>2020-12-12T11:19:42Z</time>
</trkpt>
<trkpt lat="45.678651" lon="13.122476">
<time>2020-12-12T11:19:51Z</time>
</trkpt>
<trkpt lat="45.678839" lon="13.122406">
<time>2020-12-12T11:19:57Z</time>
</trkpt>
<trkpt lat="45.678862" lon="13.122434">
<time>2020-12-12T11:19:59Z</time>
</trkpt>
<trkpt lat="45.678879" lon="13.122509">
<time>2020-12-12T11:20:04Z</time>
</trkpt>
<trkpt lat="45.678854" lon="13.122727">
<time>2020-12-12T11:20:09Z</time>
</trkpt>
<trkpt lat="45.678684" lon="13.12294">
<time>2020-12-12T11:21:07Z</time>
</trkpt>
<trkpt lat="45.6787" lon="13.122941">
<time>2020-12-12T11:21:09Z</time>
</trkpt>
<trkpt lat="45.67872" lon="13.122913">
<time>2020-12-12T11:21:12Z</time>
</trkpt>
<trkpt lat="45.678873" lon="13.122753">
<time>2020-12-12T11:21:27Z</time>
</trkpt>
<trkpt lat="45.678923" lon="13.122515">
<time>2020-12-12T11:21:38Z</time>
</trkpt>
<trkpt lat="45.67893" lon="13.122287">
<time>2020-12-12T11:21:50Z</time>
</trkpt>
<trkpt lat="45.678932" lon="13.122169">
<time>2020-12-12T11:21:57Z</time>
</trkpt>
<trkpt lat="45.678945" lon="13.122121">
<time>2020-12-12T11:22:00Z</time>
</trkpt>
</trkseg>
<name>Goran 1</name>
</trk>
</gpx>